Time;durP1;ratioP1;P1;durP2;ratioP2;P2;SDS_P1;SDS_P2;PMS_P1;PMS_P2;Temp;Humidity;BMP_temperature;BMP_pressure;BME280_temperature;BME280_humidity;BME280_pressure;Samples;Min_cycle;Max_cycle;Signal;HPM_P1;HPM_P2
2023/10/13 00:02:06;;;;;;;64.97;28.90;;;16.80;99.90;;;;;;4967911;28;20031;-64
2023/10/13 00:04:35;;;;;;;67.28;27.55;;;16.80;99.90;;;;;;4973498;28;20150;-65
2023/10/13 00:07:02;;;;;;;62.42;26.17;;;16.80;99.90;;;;;;4974031;28;20049;-65
2023/10/13 00:09:37;;;;;;;62.08;25.92;;;16.80;99.90;;;;;;4971455;28;20788;-65
2023/10/13 00:12:04;;;;;;;69.80;28.02;;;16.80;99.90;;;;;;4970247;28;20030;-65
2023/10/13 00:14:33;;;;;;;58.75;26.23;;;16.80;99.90;;;;;;4982159;28;20564;-65
2023/10/13 00:17:03;;;;;;;63.85;28.33;;;16.80;99.90;;;;;;4973865;28;20050;-65
2023/10/13 00:19:37;;;;;;;60.37;26.47;;;16.90;99.90;;;;;;4969755;28;20049;-65
2023/10/13 00:22:09;;;;;;;63.20;26.65;;;16.80;99.90;;;;;;4989760;28;20514;-65
2023/10/13 00:24:42;;;;;;;70.05;27.75;;;16.90;99.90;;;;;;4972132;28;20529;-65
2023/10/13 00:27:29;;;;;;;64.25;25.33;;;16.90;99.90;;;;;;4966925;28;20038;-65
2023/10/13 00:32:46;;;;;;;60.22;26.52;;;16.90;99.90;;;;;;4955162;29;20047;-64
2023/10/13 00:35:14;;;;;;;54.47;24.52;;;16.80;99.90;;;;;;4953470;28;20039;-64
2023/10/13 00:37:44;;;;;;;59.08;26.98;;;16.90;99.90;;;;;;4962896;28;20058;-64
2023/10/13 00:46:07;;;;;;;61.30;28.13;;;16.90;99.90;;;;;;4973310;28;20058;-64
2023/10/13 00:48:51;;;;;;;57.80;26.10;;;16.90;99.90;;;;;;4973708;28;20042;-64
2023/10/13 00:51:22;;;;;;;60.20;26.40;;;16.90;99.90;;;;;;4974198;28;20039;-64
2023/10/13 00:53:48;;;;;;;62.45;27.05;;;16.90;99.90;;;;;;4970852;28;20066;-64
2023/10/13 00:56:26;;;;;;;59.83;27.15;;;16.90;99.90;;;;;;4971706;28;20039;-64
2023/10/13 00:58:54;;;;;;;64.38;26.92;;;17.00;99.90;;;;;;4971044;28;20093;-64
2023/10/13 01:01:22;;;;;;;55.63;26.77;;;17.00;99.90;;;;;;4972621;28;20118;-64
2023/10/13 01:03:55;;;;;;;59.45;27.05;;;16.90;99.90;;;;;;4972098;28;20035;-64
2023/10/13 01:06:25;;;;;;;55.53;25.65;;;16.90;99.90;;;;;;4973551;28;20489;-64
2023/10/13 01:09:00;;;;;;;58.55;28.45;;;16.90;99.90;;;;;;4968159;28;20105;-64
2023/10/13 01:11:29;;;;;;;52.17;25.00;;;17.00;99.90;;;;;;4968589;28;20034;-65
2023/10/13 01:13:55;;;;;;;52.10;25.10;;;17.00;99.90;;;;;;4973513;28;20039;-65
2023/10/13 01:16:21;;;;;;;56.58;27.30;;;16.90;99.90;;;;;;4963325;28;20043;-65
2023/10/13 01:18:49;;;;;;;56.63;27.27;;;16.90;99.90;;;;;;4972799;28;20041;-65
2023/10/13 01:21:26;;;;;;;48.72;22.92;;;16.90;99.90;;;;;;4971882;28;20069;-66
2023/10/13 01:23:52;;;;;;;52.85;23.42;;;17.00;99.90;;;;;;4967882;28;20474;-64
2023/10/13 01:26:23;;;;;;;49.70;22.98;;;17.00;99.90;;;;;;4972341;28;20041;-65
2023/10/13 01:28:50;;;;;;;56.55;27.13;;;16.90;99.90;;;;;;4972817;28;20118;-64
2023/10/13 01:31:37;;;;;;;48.08;23.65;;;16.90;99.90;;;;;;4969298;28;20051;-65
2023/10/13 01:34:02;;;;;;;49.83;22.25;;;16.90;99.90;;;;;;4962121;28;20046;-64
2023/10/13 01:36:35;;;;;;;49.10;24.02;;;16.90;99.90;;;;;;4972518;28;20042;-64
2023/10/13 01:39:01;;;;;;;46.80;23.70;;;16.90;99.90;;;;;;4972964;28;20089;-64
2023/10/13 01:41:27;;;;;;;46.80;22.52;;;16.90;99.90;;;;;;4973089;28;20054;-64
2023/10/13 01:43:52;;;;;;;48.17;23.08;;;16.90;99.90;;;;;;4969671;28;20089;-66
2023/10/13 01:46:21;;;;;;;51.22;24.20;;;16.90;99.90;;;;;;4971983;28;20122;-66
2023/10/13 01:48:47;;;;;;;47.13;22.80;;;16.90;99.90;;;;;;4951982;28;20047;-64
2023/10/13 01:51:13;;;;;;;47.25;22.20;;;16.90;99.90;;;;;;4965883;28;20081;-65
2023/10/13 01:53:41;;;;;;;48.03;21.58;;;16.90;99.90;;;;;;4971662;28;20032;-66
2023/10/13 01:56:10;;;;;;;43.80;22.33;;;16.90;99.90;;;;;;4972366;28;20050;-66
2023/10/13 01:58:43;;;;;;;42.60;20.38;;;16.90;99.90;;;;;;4969806;28;20478;-66
2023/10/13 02:01:11;;;;;;;46.78;21.70;;;16.90;99.90;;;;;;4963603;28;20050;-65
2023/10/13 02:03:47;;;;;;;43.80;20.00;;;16.90;99.90;;;;;;4972464;28;20066;-66
2023/10/13 02:06:17;;;;;;;44.22;21.85;;;16.90;99.90;;;;;;4970059;28;20097;-66
2023/10/13 02:08:44;;;;;;;44.92;21.15;;;16.90;99.90;;;;;;4975537;28;20039;-65
2023/10/13 02:11:10;;;;;;;44.20;20.83;;;16.90;99.90;;;;;;4971017;28;20089;-65
2023/10/13 02:13:41;;;;;;;46.78;21.30;;;16.90;99.90;;;;;;4948702;28;20414;-64
2023/10/13 02:16:07;;;;;;;43.47;21.23;;;16.90;99.90;;;;;;4966992;28;20043;-65
2023/10/13 02:19:16;;;;;;;41.65;18.35;;;16.90;99.90;;;;;;4971883;28;20042;-65
2023/10/13 02:21:21;;;;;;;43.72;19.65;;;16.90;99.90;;;;;;4970583;28;20105;-65
2023/10/13 02:23:59;;;;;;;44.92;21.67;;;16.90;99.90;;;;;;4958683;28;20035;-65
2023/10/13 02:26:31;;;;;;;41.28;19.90;;;16.90;99.90;;;;;;4969223;28;20050;-66
2023/10/13 02:29:04;;;;;;;41.85;20.17;;;16.90;99.90;;;;;;4972151;28;20043;-65
2023/10/13 02:31:29;;;;;;;40.95;18.65;;;16.90;99.90;;;;;;4968194;28;20093;-66
2023/10/13 02:33:55;;;;;;;44.90;20.60;;;16.90;99.90;;;;;;4961415;28;20064;-66
2023/10/13 02:36:36;;;;;;;44.95;21.50;;;16.90;99.90;;;;;;4969556;28;20088;-66
2023/10/13 02:39:07;;;;;;;38.67;19.77;;;16.90;99.90;;;;;;4969342;28;20564;-65
2023/10/13 02:41:35;;;;;;;40.45;18.65;;;16.90;99.90;;;;;;4965064;28;20038;-65
2023/10/13 02:44:01;;;;;;;44.35;19.90;;;16.90;99.90;;;;;;4971740;28;20050;-65
2023/10/13 02:46:29;;;;;;;40.10;20.25;;;16.90;99.90;;;;;;4971965;28;20156;-65
2023/10/13 02:48:57;;;;;;;42.03;20.38;;;16.90;99.90;;;;;;4961387;28;20035;-65
2023/10/13 02:51:31;;;;;;;36.95;18.98;;;16.90;99.90;;;;;;4964205;28;20041;-65
2023/10/13 02:54:02;;;;;;;33.95;18.52;;;16.90;99.90;;;;;;4971797;28;20035;-65
2023/10/13 02:56:29;;;;;;;36.75;18.48;;;16.90;99.90;;;;;;4967433;28;20130;-65
2023/10/13 02:58:57;;;;;;;37.65;19.70;;;16.90;99.90;;;;;;4966909;28;20037;-65
2023/10/13 03:01:28;;;;;;;41.25;19.35;;;16.90;99.90;;;;;;4971011;28;20038;-66
2023/10/13 03:03:55;;;;;;;39.10;17.45;;;16.90;99.90;;;;;;4971488;28;20074;-66
2023/10/13 03:06:32;;;;;;;36.85;19.80;;;16.90;99.90;;;;;;4967005;28;20038;-65
2023/10/13 03:09:13;;;;;;;39.67;19.38;;;16.90;99.90;;;;;;4967782;28;20038;-65
2023/10/13 03:11:42;;;;;;;;;;;16.90;99.90;;;;;;4972259;28;20069;-65
2023/10/13 03:14:15;;;;;;;39.17;18.08;;;16.80;99.90;;;;;;4967355;28;19918;-65
2023/10/13 03:16:41;;;;;;;38.70;18.38;;;16.80;99.90;;;;;;4964107;28;20039;-65
2023/10/13 03:19:09;;;;;;;42.85;20.02;;;16.80;99.90;;;;;;4971598;28;20045;-64
2023/10/13 03:21:36;;;;;;;40.80;20.65;;;16.80;99.90;;;;;;4966551;28;20071;-64
2023/10/13 03:24:07;;;;;;;41.58;20.00;;;16.80;99.90;;;;;;4971006;28;20039;-64
2023/10/13 03:26:34;;;;;;;43.53;20.40;;;16.90;99.90;;;;;;4969844;28;20497;-64
2023/10/13 03:29:03;;;;;;;38.97;18.60;;;16.90;99.90;;;;;;4969624;28;20047;-64
2023/10/13 03:31:30;;;;;;;37.95;19.65;;;16.80;99.90;;;;;;4965812;28;20085;-64
2023/10/13 03:34:00;;;;;;;38.85;19.65;;;16.80;99.90;;;;;;4972882;28;20078;-64
2023/10/13 03:39:11;;;;;;;37.10;19.33;;;16.90;99.90;;;;;;4971789;28;20042;-65
2023/10/13 03:41:39;;;;;;;42.30;20.60;;;16.90;99.90;;;;;;4974853;28;20110;-64
2023/10/13 03:44:12;;;;;;;38.22;18.92;;;16.90;99.90;;;;;;4977638;28;20485;-65
2023/10/13 03:46:40;;;;;;;36.72;18.20;;;16.90;99.90;;;;;;4968786;28;20034;-65
2023/10/13 03:49:12;;;;;;;41.90;20.58;;;16.90;99.90;;;;;;4966062;28;20031;-64
2023/10/13 03:51:39;;;;;;;37.22;18.98;;;16.90;99.90;;;;;;4966392;28;20042;-64
2023/10/13 03:54:07;;;;;;;38.20;19.60;;;16.90;99.90;;;;;;4974637;28;20054;-64
2023/10/13 03:56:39;;;;;;;37.47;19.50;;;16.80;99.90;;;;;;4973181;28;20413;-64
2023/10/13 03:59:06;;;;;;;36.33;18.15;;;16.80;99.90;;;;;;4971746;28;20045;-64
2023/10/13 04:14:19;;;;;;;38.30;18.02;;;16.80;99.90;;;;;;4966673;28;20493;-66
2023/10/13 04:15:41;;;;;;;35.42;17.95;;;16.80;99.90;;;;;;4970690;28;20034;-65
2023/10/13 04:18:18;;;;;;;35.13;17.83;;;16.80;99.90;;;;;;4974049;28;20486;-65
2023/10/13 04:20:46;;;;;;;37.80;17.58;;;16.70;99.90;;;;;;4966185;28;20039;-65
2023/10/13 04:23:18;;;;;;;34.67;17.42;;;16.70;99.90;;;;;;4973764;28;20571;-66
2023/10/13 04:36:14;;;;;;;35.80;17.52;;;16.70;99.90;;;;;;4955073;28;20088;-64
2023/10/13 04:38:56;;;;;;;31.83;16.48;;;16.70;99.90;;;;;;4971780;28;20042;-65
2023/10/13 04:42:39;;;;;;;42.13;17.63;;;16.70;99.90;;;;;;4973701;28;20055;-64
2023/10/13 04:44:48;;;;;;;35.63;16.98;;;16.70;99.90;;;;;;4971556;28;20043;-64
2023/10/13 04:47:09;;;;;;;;;;;16.60;99.90;;;;;;4965645;28;20405;-64
2023/10/13 04:54:53;;;;;;;32.13;15.95;;;16.60;99.90;;;;;;4967933;28;20081;-66
2023/10/13 06:29:48;;;;;;;23.45;10.43;;;16.60;99.90;;;;;;4964495;28;20038;-65
2023/10/13 06:32:16;;;;;;;18.90;10.52;;;16.60;99.90;;;;;;4970965;28;20076;-65
2023/10/13 06:34:44;;;;;;;18.83;10.98;;;16.70;99.90;;;;;;4966108;28;20078;-66
2023/10/13 06:37:22;;;;;;;19.02;10.68;;;16.70;99.90;;;;;;4976694;28;20073;-68
2023/10/13 06:39:56;;;;;;;16.98;10.13;;;16.80;99.90;;;;;;4991084;28;20493;-67
2023/10/13 06:42:22;;;;;;;18.42;9.52;;;16.80;99.90;;;;;;4964151;28;20061;-66
2023/10/13 06:44:51;;;;;;;17.63;10.07;;;16.90;99.90;;;;;;4971819;28;20039;-67
2023/10/13 06:47:20;;;;;;;16.77;9.48;;;16.90;99.90;;;;;;4960943;28;20118;-65
2023/10/13 06:49:48;;;;;;;16.23;9.75;;;16.90;99.90;;;;;;4964341;28;20497;-65
2023/10/13 06:52:16;;;;;;;16.70;8.98;;;17.00;99.90;;;;;;4968914;28;20047;-65
2023/10/13 06:54:43;;;;;;;15.77;9.43;;;17.00;99.90;;;;;;4969852;28;20051;-65
2023/10/13 06:57:10;;;;;;;18.20;8.68;;;17.00;99.90;;;;;;4971635;28;20058;-65
2023/10/13 06:59:41;;;;;;;13.77;7.93;;;17.10;99.90;;;;;;4967224;28;20074;-67
2023/10/13 07:02:09;;;;;;;10.93;6.93;;;17.20;99.90;;;;;;4967249;28;20050;-66
2023/10/13 07:04:39;;;;;;;14.00;7.72;;;17.20;99.90;;;;;;4970016;28;20338;-67
2023/10/13 07:07:10;;;;;;;13.45;6.60;;;17.20;99.90;;;;;;4964121;28;20063;-66
2023/10/13 07:12:04;;;;;;;11.57;7.43;;;17.30;99.90;;;;;;4978100;28;20490;-67
2023/10/13 07:14:33;;;;;;;12.93;6.82;;;17.30;99.90;;;;;;4975210;28;20047;-66
2023/10/13 07:17:04;;;;;;;13.38;6.75;;;17.30;99.90;;;;;;4974188;28;20061;-66
2023/10/13 07:19:31;;;;;;;12.43;6.68;;;17.40;99.90;;;;;;4986026;28;20034;-64
2023/10/13 07:21:59;;;;;;;11.80;6.78;;;17.40;99.90;;;;;;4962776;28;20050;-65
2023/10/13 07:24:31;;;;;;;15.88;7.50;;;17.40;99.90;;;;;;4970526;28;20051;-65
2023/10/13 07:27:05;;;;;;;14.57;7.22;;;17.50;99.90;;;;;;4973572;28;20047;-66
2023/10/13 07:29:30;;;;;;;13.75;7.40;;;17.40;99.90;;;;;;4977641;28;20041;-66
2023/10/13 07:31:56;;;;;;;15.13;7.50;;;17.50;99.90;;;;;;4963956;28;20043;-65
2023/10/13 07:34:26;;;;;;;16.67;7.38;;;17.50;99.90;;;;;;4970079;28;20063;-66
2023/10/13 07:36:52;;;;;;;14.07;6.70;;;17.50;99.90;;;;;;4977533;28;20043;-68
2023/10/13 07:39:25;;;;;;;13.80;7.20;;;17.50;99.90;;;;;;4974401;28;20146;-66
2023/10/13 07:42:03;;;;;;;18.23;7.85;;;17.50;99.90;;;;;;4972083;28;20038;-65
2023/10/13 07:44:33;;;;;;;17.65;8.15;;;17.50;99.90;;;;;;4976349;28;20039;-65
2023/10/13 07:47:07;;;;;;;16.35;7.63;;;17.50;99.90;;;;;;4973158;28;20038;-65
2023/10/13 07:49:36;;;;;;;17.70;7.88;;;17.50;99.90;;;;;;4970872;28;20026;-65
2023/10/13 07:57:56;;;;;;;13.20;7.03;;;17.50;99.90;;;;;;4964946;28;20181;-66
2023/10/13 08:00:29;;;;;;;16.45;7.45;;;17.50;99.90;;;;;;4986611;28;20435;-67
2023/10/13 08:03:31;;;;;;;21.98;8.05;;;17.50;99.90;;;;;;4996852;28;20126;-66
2023/10/13 08:08:39;;;;;;;15.68;8.27;;;17.50;99.90;;;;;;4978778;28;20052;-66
2023/10/13 08:11:24;;;;;;;17.33;7.80;;;17.50;99.90;;;;;;4976447;28;20035;-65
2023/10/13 08:13:54;;;;;;;17.95;7.75;;;17.50;99.90;;;;;;4969716;28;20031;-65
2023/10/13 08:16:23;;;;;;;15.50;7.20;;;17.60;99.90;;;;;;4973756;28;20053;-65
2023/10/13 08:18:52;;;;;;;19.58;7.70;;;17.60;99.90;;;;;;4977211;28;20090;-66
2023/10/13 08:21:25;;;;;;;17.20;7.65;;;17.60;99.90;;;;;;4963389;28;20039;-66
2023/10/13 08:26:30;;;;;;;19.20;7.72;;;17.70;99.90;;;;;;4968261;28;20126;-66
2023/10/13 08:29:49;;;;;;;17.85;8.40;;;17.60;99.90;;;;;;4970236;28;20441;-65
2023/10/13 08:34:38;;;;;;;18.15;8.63;;;17.60;99.90;;;;;;4974043;28;20521;-64
2023/10/13 08:37:59;;;;;;;17.70;8.40;;;17.80;99.90;;;;;;4972340;28;20097;-65
2023/10/13 08:48:34;;;;;;;18.80;9.57;;;18.10;99.90;;;;;;4965008;28;20071;-66
2023/10/13 08:56:14;;;;;;;15.40;8.70;;;18.30;99.90;;;;;;4954550;28;20051;-65
2023/10/13 09:07:06;;;;;;;10.73;7.00;;;18.70;99.90;;;;;;4972578;28;20046;-64
2023/10/13 09:25:38;;;;;;;14.95;6.78;;;19.10;99.90;;;;;;4973180;28;20047;-66
2023/10/13 09:28:14;;;;;;;15.43;6.68;;;19.20;99.90;;;;;;4962172;28;20051;-66
2023/10/13 09:30:56;;;;;;;16.27;6.88;;;19.20;99.90;;;;;;4972346;28;20501;-66
2023/10/13 09:33:32;;;;;;;15.15;6.30;;;19.30;99.90;;;;;;4972486;28;20559;-66
2023/10/13 09:36:06;;;;;;;16.67;6.90;;;19.20;99.90;;;;;;4962841;28;20125;-68
2023/10/13 10:23:54;;;;;;;14.73;7.68;;;19.50;99.90;;;;;;5117084;27;20412;-70
2023/10/13 10:26:20;;;;;;;15.32;6.57;;;19.70;99.90;;;;;;5126716;28;20043;-71
2023/10/13 10:28:46;;;;;;;15.43;7.13;;;19.70;99.90;;;;;;5123516;28;20031;-70
2023/10/13 10:31:14;;;;;;;14.77;6.47;;;19.70;99.90;;;;;;5111983;27;20403;-70
2023/10/13 10:33:40;;;;;;;16.60;7.68;;;19.70;99.90;;;;;;5124814;27;20154;-69
2023/10/13 10:36:05;;;;;;;16.63;6.82;;;19.80;99.90;;;;;;5125041;28;20123;-71
2023/10/13 10:41:06;;;;;;;13.82;7.22;;;20.00;99.90;;;;;;5118719;28;20044;-69
2023/10/13 10:43:47;;;;;;;15.07;6.53;;;20.00;99.90;;;;;;5129519;28;20054;-70
2023/10/13 10:46:25;;;;;;;19.92;7.43;;;20.00;99.90;;;;;;5135757;28;20883;-70
2023/10/13 10:48:56;;;;;;;15.25;7.03;;;20.00;99.90;;;;;;5130526;28;20044;-71
2023/10/13 10:51:22;;;;;;;12.57;7.20;;;20.00;99.90;;;;;;5131714;28;20118;-69
2023/10/13 10:53:52;;;;;;;12.85;6.63;;;20.00;99.90;;;;;;5131268;28;20032;-69
2023/10/13 10:56:24;;;;;;;17.42;7.18;;;20.00;99.90;;;;;;5125812;28;20027;-69
2023/10/13 10:58:57;;;;;;;14.32;6.65;;;20.00;99.90;;;;;;5126345;28;20035;-71
2023/10/13 11:01:24;;;;;;;18.38;7.05;;;19.90;99.90;;;;;;5121013;28;20039;-71
2023/10/13 11:03:59;;;;;;;14.70;7.10;;;19.90;99.90;;;;;;5119694;28;20038;-69
2023/10/13 11:06:28;;;;;;;16.67;7.10;;;19.90;99.90;;;;;;5130746;28;20035;-70
2023/10/13 11:09:03;;;;;;;16.20;6.82;;;20.00;99.90;;;;;;5136113;28;20054;-67
2023/10/13 11:11:35;;;;;;;16.92;7.10;;;20.00;99.90;;;;;;5124500;28;20043;-72
2023/10/13 11:14:22;;;;;;;15.55;7.28;;;20.00;99.90;;;;;;5129943;28;20543;-69
2023/10/13 11:16:59;;;;;;;17.10;6.78;;;20.10;99.90;;;;;;5129272;28;20078;-67
2023/10/13 11:19:38;;;;;;;12.82;6.72;;;20.10;99.90;;;;;;5117957;28;20114;-67
2023/10/13 11:22:33;;;;;;;18.25;7.28;;;20.10;99.90;;;;;;5111090;28;20518;-68
2023/10/13 11:25:00;;;;;;;16.08;7.30;;;20.20;99.90;;;;;;5091772;28;20036;-67
2023/10/13 11:30:25;;;;;;;19.10;7.10;;;20.30;99.90;;;;;;5102231;28;20055;-68
2023/10/13 11:33:05;;;;;;;13.77;7.35;;;20.30;99.90;;;;;;5108757;28;20042;-69
2023/10/13 11:38:25;;;;;;;17.35;7.53;;;20.40;99.90;;;;;;5103183;28;20193;-68
2023/10/13 11:46:14;;;;;;;16.73;7.55;;;20.70;99.90;;;;;;5109012;28;20040;-67
2023/10/13 11:48:41;;;;;;;18.35;8.00;;;20.70;99.90;;;;;;5108628;28;20668;-67
2023/10/13 11:51:09;;;;;;;14.32;7.53;;;20.80;99.90;;;;;;5111880;28;20403;-67
2023/10/13 11:53:38;;;;;;;17.58;6.25;;;20.70;99.90;;;;;;5106779;28;20047;-68
2023/10/13 11:56:09;;;;;;;16.95;6.47;;;20.70;99.90;;;;;;5114206;28;20037;-69
2023/10/13 11:58:39;;;;;;;21.10;7.70;;;20.60;99.90;;;;;;5112723;28;20538;-68
2023/10/13 12:11:42;;;;;;;12.85;6.97;;;20.60;99.90;;;;;;5105110;28;20052;-69
2023/10/13 12:14:16;;;;;;;17.80;7.93;;;20.60;99.90;;;;;;5111367;28;20115;-69
2023/10/13 12:16:48;;;;;;;14.20;6.90;;;20.60;99.90;;;;;;5113849;28;20047;-69
2023/10/13 12:19:24;;;;;;;16.25;7.53;;;20.70;99.90;;;;;;5108540;28;20040;-69
2023/10/13 12:21:56;;;;;;;26.17;7.55;;;20.70;99.90;;;;;;5110836;28;20119;-68
2023/10/13 12:27:20;;;;;;;12.60;6.65;;;20.70;99.90;;;;;;5113676;28;20614;-68
2023/10/13 12:29:46;;;;;;;14.50;6.55;;;20.70;99.90;;;;;;5110455;28;20040;-69
2023/10/13 12:32:13;;;;;;;18.48;7.70;;;20.70;99.90;;;;;;5102634;28;20688;-69
2023/10/13 12:53:55;;;;;;;17.38;7.63;;;21.00;99.90;;;;;;5106572;28;20046;-68
2023/10/13 12:56:25;;;;;;;19.55;7.40;;;21.00;99.90;;;;;;5100201;28;20039;-67
2023/10/13 12:58:54;;;;;;;16.02;7.40;;;21.00;99.90;;;;;;5110161;27;20047;-67
2023/10/13 13:01:21;;;;;;;12.90;7.88;;;21.00;99.90;;;;;;5094060;27;20106;-68
2023/10/13 13:03:51;;;;;;;16.23;7.63;;;20.90;99.90;;;;;;5114776;28;20043;-68
2023/10/13 13:06:24;;;;;;;22.10;7.95;;;20.90;99.90;;;;;;5104307;28;20031;-68
2023/10/13 13:08:58;;;;;;;19.60;7.82;;;20.90;99.90;;;;;;5106366;28;20074;-68
2023/10/13 13:11:24;;;;;;;12.82;7.32;;;20.90;99.90;;;;;;5106668;28;20050;-68
2023/10/13 13:13:50;;;;;;;19.50;7.88;;;21.00;99.90;;;;;;5098478;28;20048;-68
2023/10/13 13:16:19;;;;;;;19.67;8.50;;;21.00;99.90;;;;;;5104355;28;20050;-68
2023/10/13 13:18:45;;;;;;;19.02;7.70;;;21.10;99.90;;;;;;5098039;28;20036;-68
2023/10/13 13:21:19;;;;;;;17.55;7.68;;;21.00;99.90;;;;;;5107905;28;20046;-68
2023/10/13 13:23:49;;;;;;;21.25;7.95;;;21.10;99.90;;;;;;5110600;28;20048;-69
2023/10/13 13:26:15;;;;;;;23.35;7.80;;;21.10;99.90;;;;;;5105182;27;20035;-68
2023/10/13 13:28:52;;;;;;;18.98;7.97;;;21.00;99.90;;;;;;5105595;28;20040;-68
2023/10/13 13:31:30;;;;;;;21.38;7.55;;;21.00;99.90;;;;;;5110874;28;20444;-68
2023/10/13 13:33:56;;;;;;;19.70;7.70;;;21.10;99.90;;;;;;5103482;28;20046;-67
2023/10/13 13:36:22;;;;;;;21.92;7.82;;;21.00;99.90;;;;;;5111228;28;20028;-67
2023/10/13 13:38:50;;;;;;;18.40;7.65;;;21.10;99.90;;;;;;5111267;28;20096;-67
2023/10/13 13:41:16;;;;;;;17.65;7.15;;;21.10;99.90;;;;;;5107937;28;20861;-67
2023/10/13 13:46:17;;;;;;;15.02;7.43;;;21.10;99.90;;;;;;5124068;28;20052;-69
2023/10/13 13:48:42;;;;;;;19.10;7.63;;;21.00;99.90;;;;;;5121781;28;20554;-66
2023/10/13 13:51:15;;;;;;;19.50;7.22;;;20.90;99.90;;;;;;5102499;28;20075;-68
2023/10/13 13:53:48;;;;;;;21.77;7.80;;;20.80;99.90;;;;;;5109665;28;20044;-68
2023/10/13 13:56:18;;;;;;;20.65;7.90;;;20.70;99.90;;;;;;5099811;28;20040;-68
2023/10/13 13:58:50;;;;;;;20.15;7.93;;;20.50;99.90;;;;;;5096117;28;20118;-68
2023/10/13 14:01:19;;;;;;;15.90;8.05;;;20.50;99.90;;;;;;5109947;28;20054;-68
2023/10/13 14:03:52;;;;;;;18.60;8.32;;;20.40;99.90;;;;;;5110076;28;20078;-68
2023/10/13 14:06:23;;;;;;;17.02;8.13;;;20.40;99.90;;;;;;5094444;28;20036;-68
2023/10/13 14:08:57;;;;;;;18.08;8.68;;;20.20;99.90;;;;;;5105392;28;20044;-67
2023/10/13 14:14:12;;;;;;;17.13;7.93;;;20.10;99.90;;;;;;5103828;28;20096;-69
2023/10/13 14:16:45;;;;;;;16.70;8.52;;;20.00;99.90;;;;;;5105224;28;20495;-68
2023/10/13 14:19:19;;;;;;;19.25;7.63;;;20.00;99.90;;;;;;5108458;28;20036;-68
2023/10/13 14:21:51;;;;;;;14.75;8.20;;;20.00;99.90;;;;;;5109552;28;20502;-66
2023/10/13 14:24:18;;;;;;;18.13;8.70;;;20.00;99.90;;;;;;5098541;28;20067;-68
2023/10/13 14:26:44;;;;;;;19.08;8.52;;;20.00;99.90;;;;;;5112309;28;20491;-70
2023/10/13 14:29:14;;;;;;;23.58;8.50;;;19.90;99.90;;;;;;5106918;28;20126;-70
2023/10/13 14:31:39;;;;;;;19.55;7.75;;;19.90;99.90;;;;;;5120169;28;20063;-69
2023/10/13 14:34:06;;;;;;;17.98;8.80;;;19.80;99.90;;;;;;5120973;28;20046;-70
2023/10/13 14:36:34;;;;;;;21.33;8.57;;;19.80;99.90;;;;;;5106627;28;20562;-68
2023/10/13 14:39:01;;;;;;;18.40;9.15;;;19.90;99.90;;;;;;5112809;28;20047;-70
2023/10/13 14:41:27;;;;;;;18.35;8.35;;;19.90;99.90;;;;;;5114158;28;20352;-69
2023/10/13 14:43:52;;;;;;;25.63;9.85;;;19.90;99.90;;;;;;5121806;28;20035;-69
2023/10/13 14:46:22;;;;;;;23.02;8.45;;;19.90;99.90;;;;;;5122263;28;20101;-69
2023/10/13 14:48:51;;;;;;;17.27;8.05;;;19.80;99.90;;;;;;5123598;28;20104;-67
2023/10/13 14:51:16;;;;;;;18.30;8.30;;;19.80;99.90;;;;;;5111786;28;20705;-69
2023/10/13 14:53:46;;;;;;;24.05;9.45;;;19.70;99.90;;;;;;5118520;28;20039;-70
2023/10/13 14:56:12;;;;;;;14.93;8.77;;;19.50;99.90;;;;;;5118485;28;20162;-69
2023/10/13 14:58:44;;;;;;;17.13;9.23;;;19.40;99.90;;;;;;5104148;28;20044;-68
2023/10/13 15:01:15;;;;;;;25.30;10.57;;;19.30;99.90;;;;;;5102700;28;20076;-68
2023/10/13 15:03:48;;;;;;;21.55;9.55;;;19.10;99.90;;;;;;5107625;28;20069;-68
2023/10/13 15:06:25;;;;;;;18.10;9.18;;;19.00;99.90;;;;;;5114556;28;20403;-68
2023/10/13 15:08:54;;;;;;;18.45;9.57;;;18.90;99.90;;;;;;5113705;28;20046;-68
2023/10/13 15:11:20;;;;;;;21.50;9.65;;;18.90;99.90;;;;;;5102556;28;20032;-68
2023/10/13 15:13:50;;;;;;;25.23;10.45;;;18.90;99.90;;;;;;5100027;28;20059;-68
2023/10/13 15:16:16;;;;;;;20.00;9.13;;;18.90;99.90;;;;;;5112596;28;20078;-69
2023/10/13 15:18:51;;;;;;;25.30;10.88;;;18.90;99.90;;;;;;5112909;28;20561;-69
2023/10/13 15:21:22;;;;;;;23.00;10.07;;;18.80;99.90;;;;;;5112588;28;20118;-70
2023/10/13 15:23:48;;;;;;;25.23;9.80;;;18.70;99.90;;;;;;5106425;28;20043;-69
2023/10/13 15:26:15;;;;;;;22.38;9.55;;;18.70;99.90;;;;;;5112757;28;20492;-70
2023/10/13 15:28:53;;;;;;;22.33;8.63;;;18.70;99.90;;;;;;5112745;28;20499;-72
2023/10/13 15:34:00;;;;;;;;;;;18.70;99.90;;;;;;5114672;28;20076;-69
2023/10/13 15:36:27;;;;;;;16.60;8.75;;;18.60;99.90;;;;;;5126539;28;19926;-68
2023/10/13 15:38:53;;;;;;;20.42;8.93;;;18.60;99.90;;;;;;5126526;28;20039;-68
2023/10/13 15:41:27;;;;;;;18.90;9.57;;;18.60;99.90;;;;;;5116831;28;20036;-69
2023/10/13 15:43:54;;;;;;;15.73;8.98;;;18.60;99.90;;;;;;5122783;28;20036;-68
2023/10/13 15:46:21;;;;;;;18.05;9.07;;;18.60;99.90;;;;;;5112915;28;20044;-69
2023/10/13 15:48:48;;;;;;;19.05;8.98;;;18.50;99.90;;;;;;5110038;28;20098;-69
2023/10/13 15:51:14;;;;;;;18.98;9.18;;;18.60;99.90;;;;;;5112721;28;20036;-68
2023/10/13 15:53:40;;;;;;;19.83;8.57;;;18.50;99.90;;;;;;5107770;28;20133;-69
2023/10/13 15:56:11;;;;;;;19.52;8.20;;;18.60;99.90;;;;;;5097034;27;20032;-69
2023/10/13 15:58:46;;;;;;;18.52;7.88;;;18.50;99.90;;;;;;5111647;28;20047;-69
2023/10/13 16:01:13;;;;;;;17.60;7.80;;;18.60;99.90;;;;;;5125267;27;20028;-69
2023/10/13 16:03:51;;;;;;;19.70;8.75;;;18.50;99.90;;;;;;5109438;28;20051;-69
2023/10/13 16:06:17;;;;;;;15.18;8.48;;;18.50;99.90;;;;;;5121594;28;20047;-69
2023/10/13 16:08:43;;;;;;;17.73;8.68;;;18.50;99.90;;;;;;5117277;28;20112;-69
2023/10/13 16:11:18;;;;;;;19.60;9.75;;;18.50;99.90;;;;;;5108529;28;20055;-67
2023/10/13 16:13:45;;;;;;;17.00;9.75;;;18.40;99.90;;;;;;5124509;28;20040;-69
2023/10/13 16:16:15;;;;;;;21.63;9.82;;;18.40;99.90;;;;;;5105615;28;20050;-69
2023/10/13 16:18:43;;;;;;;21.50;9.02;;;18.30;99.90;;;;;;5129038;28;20059;-70
2023/10/13 16:21:12;;;;;;;13.75;8.55;;;18.30;99.90;;;;;;5119087;28;20036;-69
2023/10/13 16:23:39;;;;;;;22.40;8.85;;;18.30;99.90;;;;;;5122871;27;20061;-67
2023/10/13 16:26:07;;;;;;;21.98;8.77;;;18.30;99.90;;;;;;5124279;28;20032;-68
2023/10/13 16:28:38;;;;;;;17.10;9.13;;;18.30;99.90;;;;;;5102609;28;20558;-67
2023/10/13 16:31:05;;;;;;;19.30;9.40;;;18.30;99.90;;;;;;5106999;28;20035;-67
2023/10/13 16:33:32;;;;;;;22.85;9.02;;;18.30;99.90;;;;;;5110809;28;20083;-67
2023/10/13 16:35:58;;;;;;;18.58;8.68;;;18.30;99.90;;;;;;5109124;28;20067;-67
2023/10/13 16:38:28;;;;;;;19.08;8.77;;;18.30;99.90;;;;;;5103613;28;20088;-67
2023/10/13 16:40:53;;;;;;;21.52;9.30;;;18.40;99.90;;;;;;5108361;28;20099;-67
2023/10/13 16:43:22;;;;;;;23.23;10.25;;;18.30;99.90;;;;;;5111839;28;20039;-68
2023/10/13 16:45:48;;;;;;;18.10;8.73;;;18.30;99.90;;;;;;5101605;28;20134;-67
2023/10/13 16:48:16;;;;;;;21.45;9.40;;;18.30;99.90;;;;;;5110149;28;20464;-67
2023/10/13 16:50:43;;;;;;;19.35;8.90;;;18.40;99.90;;;;;;5121307;28;20414;-69
2023/10/13 16:53:10;;;;;;;16.80;9.00;;;18.30;99.90;;;;;;5108148;28;20371;-70
2023/10/13 16:55:37;;;;;;;15.32;8.32;;;18.40;99.90;;;;;;5102213;28;20028;-69
2023/10/13 16:58:03;;;;;;;21.60;8.55;;;18.30;99.90;;;;;;5113523;28;20046;-68
2023/10/13 17:00:29;;;;;;;17.33;7.55;;;18.30;99.90;;;;;;5114984;28;20088;-69
2023/10/13 17:02:55;;;;;;;18.08;7.85;;;18.30;99.90;;;;;;5103852;28;20035;-68
2023/10/13 17:05:21;;;;;;;14.18;6.82;;;18.30;99.90;;;;;;5098198;28;20043;-67
2023/10/13 17:07:47;;;;;;;18.25;7.10;;;18.40;99.90;;;;;;5110542;28;20048;-68
2023/10/13 17:10:14;;;;;;;17.42;6.93;;;18.40;99.90;;;;;;5101748;28;20032;-69
2023/10/13 17:12:40;;;;;;;14.25;7.13;;;18.40;99.90;;;;;;5098309;28;20036;-67
2023/10/13 17:15:13;;;;;;;13.90;7.43;;;18.50;99.90;;;;;;5110153;28;20047;-68
2023/10/13 17:17:44;;;;;;;14.98;7.20;;;18.40;99.90;;;;;;5119421;28;20046;-67
2023/10/13 17:20:09;;;;;;;14.17;7.10;;;18.40;99.90;;;;;;5113283;28;20075;-69
2023/10/13 17:22:40;;;;;;;18.92;8.05;;;18.40;99.90;;;;;;5114875;28;20059;-70
2023/10/13 17:25:06;;;;;;;18.58;7.65;;;18.40;99.90;;;;;;5111367;28;20043;-70
2023/10/13 17:27:32;;;;;;;19.63;8.00;;;18.40;99.90;;;;;;5099346;28;20039;-68
2023/10/13 17:29:59;;;;;;;16.65;7.18;;;18.30;99.90;;;;;;5101347;28;20047;-68
2023/10/13 17:32:24;;;;;;;18.40;8.05;;;18.40;99.90;;;;;;5109667;28;20047;-68
2023/10/13 17:34:51;;;;;;;19.15;8.68;;;18.30;99.90;;;;;;5104231;28;20036;-68